As Sib, Oman
Current Conditions -  °F | °C
As of 5:50 PM on Wednesday 22 Oct 2014 (Local Time) from EQMN Reporting Station
Clear Clear  
Wind Chill: 90°   Ceiling: Unl
Heat Index: 90°   Visibility: 6mi
Dew Point: 63°   Wind: 6mph
Humidity: 40%   Direction: 100°E
Pressure: 29.91"   Gusts: NA
Location:  23.67°N, 58.19°E
Report Text: EQMN 221350Z 10005KT 9999 SKC 32/17 Q1013 BLU NOSIG
Loading
Personal Weather Stations






























Interactive Weather Map New forecast layout! Learn more

10-Day Weather Forecast

Advertisements
Track Severe Weather on mobile